createdAt,value
2022-12-22T00:01:56.977Z,74.65
2022-12-22T00:04:42.412Z,74.72
2022-12-22T00:07:27.754Z,74.40
2022-12-22T00:10:13.156Z,74.31
2022-12-22T00:12:58.509Z,74.09
2022-12-22T00:15:53.305Z,74.63
2022-12-22T00:18:39.079Z,74.47
2022-12-22T00:21:24.244Z,74.88
2022-12-22T00:24:09.578Z,74.69
2022-12-22T00:26:54.974Z,75.64
2022-12-22T00:29:40.758Z,76.23
2022-12-22T00:32:32.575Z,75.81
2022-12-22T00:35:18.851Z,76.09
2022-12-22T00:38:04.113Z,76.39
2022-12-22T00:40:49.361Z,76.07
2022-12-22T00:43:34.762Z,76.20
2022-12-22T00:46:22.522Z,75.79
2022-12-22T00:49:09.191Z,76.46
2022-12-22T00:51:54.666Z,76.49
2022-12-22T00:54:41.992Z,75.98
2022-12-22T00:57:37.287Z,75.75
2022-12-22T01:00:24.989Z,76.32
2022-12-22T01:03:10.354Z,76.26
2022-12-22T01:05:55.268Z,76.27
2022-12-22T01:08:40.491Z,75.98
2022-12-22T01:11:26.334Z,76.13
2022-12-22T01:14:11.448Z,75.89
2022-12-22T01:16:56.727Z,76.23
2022-12-22T01:19:42.011Z,75.80
2022-12-22T01:22:34.273Z,75.77
2022-12-22T01:25:19.562Z,76.02
2022-12-22T01:28:04.804Z,75.94
2022-12-22T01:30:50.064Z,76.63
2022-12-22T01:33:35.496Z,76.18
2022-12-22T01:36:20.759Z,75.91
2022-12-22T01:39:06.085Z,75.91
2022-12-22T01:41:51.252Z,75.87
2022-12-22T01:44:37.063Z,75.72
2022-12-22T01:47:46.933Z,75.54
2022-12-22T01:50:54.567Z,75.99
2022-12-22T01:53:47.463Z,76.07
2022-12-22T01:56:32.765Z,75.66
2022-12-22T01:59:22.772Z,75.93
2022-12-22T02:02:08.066Z,76.24
2022-12-22T02:05:00.039Z,76.24
2022-12-22T02:08:30.936Z,76.21
2022-12-22T02:12:15.516Z,75.92
2022-12-22T02:15:26.898Z,76.09
2022-12-22T02:18:42.511Z,76.58
2022-12-22T02:21:36.939Z,76.43
2022-12-22T02:25:09.205Z,75.91
2022-12-22T02:27:59.714Z,76.35
2022-12-22T02:30:47.018Z,75.99
2022-12-22T02:33:32.445Z,76.11
2022-12-22T02:36:48.005Z,75.92
2022-12-22T02:39:51.080Z,76.32
2022-12-22T02:42:52.629Z,76.38
2022-12-22T02:46:05.156Z,76.33
2022-12-22T02:49:24.551Z,76.20
2022-12-22T02:52:21.381Z,76.26
2022-12-22T02:55:06.712Z,76.86
2022-12-22T02:57:52.932Z,76.30
2022-12-22T03:00:38.019Z,76.10
2022-12-22T03:03:23.227Z,76.16
2022-12-22T03:06:08.159Z,75.72
2022-12-22T03:08:53.243Z,75.65
2022-12-22T03:11:38.380Z,75.92
2022-12-22T03:14:23.615Z,76.02
2022-12-22T03:17:08.967Z,76.01
2022-12-22T03:19:54.390Z,75.48
2022-12-22T03:22:39.724Z,75.78
2022-12-22T03:25:25.490Z,75.81
2022-12-22T03:27:52.000Z,75.82
2022-12-22T03:30:18.759Z,76.05
2022-12-22T03:32:45.261Z,75.45
2022-12-22T03:35:11.683Z,75.48
2022-12-22T03:37:38.222Z,75.61
2022-12-22T03:40:05.500Z,75.35
2022-12-22T03:42:50.787Z,75.44
2022-12-22T03:45:36.053Z,75.85
2022-12-22T03:48:02.553Z,75.36
2022-12-22T03:50:29.242Z,75.57
2022-12-22T03:52:56.422Z,75.05
2022-12-22T03:55:22.910Z,75.05
2022-12-22T03:57:49.442Z,75.43
2022-12-22T04:00:16.528Z,75.42
2022-12-22T04:02:43.274Z,75.86
2022-12-22T04:05:10.452Z,75.79
2022-12-22T04:07:36.948Z,75.62
2022-12-22T04:10:23.334Z,75.68
2022-12-22T04:12:55.908Z,76.26
2022-12-22T04:15:31.866Z,76.26
2022-12-22T04:17:59.794Z,76.71
2022-12-22T04:20:28.100Z,76.48
2022-12-22T04:22:56.232Z,76.10
2022-12-22T04:25:24.794Z,75.72
2022-12-22T04:27:51.413Z,75.65
2022-12-22T04:30:18.517Z,75.50
2022-12-22T04:32:45.271Z,75.36
2022-12-22T04:35:12.204Z,75.83
2022-12-22T04:37:38.845Z,75.84
2022-12-22T04:40:06.409Z,75.57
2022-12-22T04:42:32.875Z,75.56
2022-12-22T04:44:59.366Z,75.19
2022-12-22T04:47:25.892Z,75.67
2022-12-22T04:49:52.454Z,75.63
2022-12-22T04:52:18.913Z,75.46
2022-12-22T04:54:45.360Z,75.51
2022-12-22T04:57:11.846Z,75.77
2022-12-22T04:59:38.351Z,75.38
2022-12-22T05:02:05.076Z,75.48
2022-12-22T05:04:32.253Z,75.30
2022-12-22T05:06:58.716Z,75.58
2022-12-22T05:09:25.230Z,75.51
2022-12-22T05:11:51.703Z,75.44
2022-12-22T05:14:18.242Z,74.85
2022-12-22T05:16:44.764Z,75.19
2022-12-22T05:19:11.803Z,75.43
2022-12-22T05:21:38.303Z,76.07
2022-12-22T05:24:05.490Z,76.14
2022-12-22T05:26:31.951Z,76.15
2022-12-22T05:28:58.554Z,75.48
2022-12-22T05:31:27.567Z,75.98
2022-12-22T05:33:54.139Z,76.35
2022-12-22T05:36:20.652Z,76.41
2022-12-22T05:38:47.152Z,76.56
2022-12-22T05:41:14.116Z,76.65
2022-12-22T05:43:40.971Z,76.43
2022-12-22T05:46:11.093Z,76.41
2022-12-22T05:48:39.982Z,76.78
2022-12-22T05:51:08.881Z,76.44
2022-12-22T05:53:37.798Z,76.61
2022-12-22T05:56:05.205Z,76.68
2022-12-22T05:58:32.793Z,76.31
2022-12-22T06:01:01.038Z,76.11
2022-12-22T06:03:29.090Z,76.85
2022-12-22T06:05:56.017Z,77.03
2022-12-22T06:08:23.598Z,77.21
2022-12-22T06:10:50.429Z,77.13
2022-12-22T06:13:17.069Z,76.56
2022-12-22T06:15:44.027Z,76.95
2022-12-22T06:18:10.737Z,77.67
2022-12-22T06:20:37.271Z,78.07
2022-12-22T06:23:03.755Z,77.76
2022-12-22T06:25:30.304Z,77.76
2022-12-22T06:27:56.755Z,77.68
2022-12-22T06:30:29.178Z,77.24
2022-12-22T06:32:57.866Z,77.53
2022-12-22T06:35:24.312Z,77.30
2022-12-22T06:37:50.975Z,76.85
2022-12-22T06:40:17.631Z,77.20
2022-12-22T06:43:08.358Z,77.09
2022-12-22T06:45:38.546Z,77.08
2022-12-22T06:48:06.157Z,76.90
2022-12-22T06:50:33.015Z,76.34
2022-12-22T06:52:59.726Z,76.54
2022-12-22T06:55:26.441Z,76.78
2022-12-22T06:57:53.011Z,76.78
2022-12-22T07:00:20.228Z,76.57
2022-12-22T07:02:47.057Z,76.68
2022-12-22T07:05:15.501Z,76.57
2022-12-22T07:07:42.827Z,77.02
2022-12-22T07:10:10.309Z,76.67
2022-12-22T07:12:36.807Z,76.76
2022-12-22T07:15:04.137Z,76.97
2022-12-22T07:17:30.678Z,76.84
2022-12-22T07:19:57.158Z,76.59
2022-12-22T07:22:29.514Z,76.86
2022-12-22T07:24:56.657Z,76.44
2022-12-22T07:27:23.240Z,75.94
2022-12-22T07:29:49.791Z,76.22
2022-12-22T07:32:16.313Z,76.53
2022-12-22T07:34:42.776Z,75.91
2022-12-22T07:37:09.226Z,75.83
2022-12-22T07:39:35.693Z,75.62
2022-12-22T07:42:20.805Z,75.92
2022-12-22T07:44:47.408Z,76.13
2022-12-22T07:47:13.923Z,76.00
2022-12-22T07:49:59.045Z,75.87
2022-12-22T07:52:25.609Z,76.60
2022-12-22T07:54:52.098Z,76.36
2022-12-22T07:57:18.574Z,75.78
2022-12-22T07:59:45.072Z,75.96
2022-12-22T08:02:12.519Z,76.10
2022-12-22T08:04:39.111Z,76.17
2022-12-22T08:07:05.727Z,76.05
2022-12-22T08:09:32.198Z,75.91
2022-12-22T08:11:58.749Z,75.69
2022-12-22T08:14:25.310Z,75.67
2022-12-22T08:16:51.979Z,75.54
2022-12-22T08:19:18.545Z,75.95
2022-12-22T08:21:52.072Z,75.99
2022-12-22T08:24:19.217Z,75.91
2022-12-22T08:26:52.550Z,76.08
2022-12-22T08:29:27.414Z,76.13
2022-12-22T08:31:55.510Z,76.12
2022-12-22T08:34:22.079Z,75.97
2022-12-22T08:36:58.740Z,75.11
2022-12-22T08:39:27.668Z,76.62
2022-12-22T08:41:54.927Z,75.82
2022-12-22T08:44:26.466Z,75.85
2022-12-22T08:46:55.123Z,75.46
2022-12-22T08:49:22.394Z,75.83
2022-12-22T08:51:49.521Z,75.71
2022-12-22T08:54:16.689Z,75.80
2022-12-22T08:56:44.214Z,75.59
2022-12-22T08:59:11.766Z,75.79
2022-12-22T09:01:47.185Z,76.02
2022-12-22T09:04:15.668Z,75.83
2022-12-22T09:06:42.258Z,76.30
2022-12-22T09:09:12.925Z,76.18
2022-12-22T09:11:40.952Z,75.69
2022-12-22T09:14:09.745Z,74.95
2022-12-22T09:16:37.129Z,74.65
2022-12-22T09:19:05.021Z,75.06
2022-12-22T09:21:31.561Z,75.03
2022-12-22T09:23:59.229Z,75.25
2022-12-22T09:26:28.528Z,75.30
2022-12-22T09:28:55.792Z,75.35
2022-12-22T09:31:24.786Z,75.29
2022-12-22T09:33:52.615Z,75.66
2022-12-22T09:36:29.348Z,74.99
2022-12-22T09:38:55.951Z,75.54
2022-12-22T09:41:35.387Z,74.58
2022-12-22T09:44:06.656Z,74.77
2022-12-22T09:46:37.096Z,74.26
2022-12-22T09:49:07.167Z,74.13
2022-12-22T09:51:46.668Z,74.00
2022-12-22T09:54:14.460Z,74.36
2022-12-22T09:56:40.918Z,74.12
2022-12-22T09:59:17.832Z,74.07
2022-12-22T10:02:28.416Z,74.21
2022-12-22T10:05:54.108Z,74.11
2022-12-22T10:08:37.768Z,74.44
2022-12-22T10:11:04.852Z,74.13
2022-12-22T10:13:31.895Z,74.21
2022-12-22T10:15:58.710Z,73.92
2022-12-22T10:18:28.504Z,73.46
2022-12-22T10:21:14.633Z,72.93
2022-12-22T10:23:47.597Z,73.71
2022-12-22T10:26:31.295Z,74.62
2022-12-22T10:29:13.188Z,74.30
2022-12-22T10:32:02.796Z,74.43
2022-12-22T10:34:30.617Z,74.26
2022-12-22T10:37:02.714Z,74.52
2022-12-22T10:39:34.621Z,74.17
2022-12-22T10:42:09.953Z,74.40
2022-12-22T10:44:38.935Z,74.52
2022-12-22T10:47:20.445Z,74.03
2022-12-22T10:52:29.409Z,72.43
2022-12-22T10:55:29.209Z,72.91
2022-12-22T10:58:10.695Z,72.33
2022-12-22T11:00:38.779Z,72.60
2022-12-22T11:03:08.214Z,72.81
2022-12-22T11:05:34.943Z,72.66
2022-12-22T11:08:17.612Z,72.29
2022-12-22T11:10:56.889Z,72.34
2022-12-22T11:13:48.149Z,72.66
2022-12-22T11:16:33.443Z,72.74
2022-12-22T11:19:21.150Z,72.51
2022-12-22T11:22:15.357Z,72.20
2022-12-22T11:25:14.351Z,72.51
2022-12-22T11:27:53.037Z,72.97
2022-12-22T11:30:31.492Z,72.35
2022-12-22T11:33:35.529Z,72.11
2022-12-22T11:36:09.614Z,72.10
2022-12-22T11:39:03.888Z,71.38
2022-12-22T11:41:55.585Z,71.30
2022-12-22T11:44:52.677Z,72.24
2022-12-22T11:47:44.188Z,72.54
2022-12-22T11:50:59.388Z,71.60
2022-12-22T11:53:39.898Z,72.49
2022-12-22T11:56:26.679Z,72.47
2022-12-22T11:59:34.825Z,71.96
2022-12-22T12:02:38.795Z,72.63
2022-12-22T12:05:41.263Z,71.95
2022-12-22T12:08:41.841Z,71.81
2022-12-22T12:11:28.985Z,72.82
2022-12-22T12:14:13.715Z,73.10
2022-12-22T12:16:58.388Z,72.94
2022-12-22T12:20:19.237Z,72.63
2022-12-22T12:23:19.701Z,71.18
2022-12-22T12:26:29.724Z,71.92
2022-12-22T12:29:20.237Z,71.37
2022-12-22T12:32:10.482Z,71.39
2022-12-22T12:34:45.555Z,71.12
2022-12-22T12:37:36.934Z,70.66
2022-12-22T12:40:34.740Z,70.92
2022-12-22T12:43:03.380Z,71.17
2022-12-22T12:45:41.548Z,70.60
2022-12-22T12:48:25.903Z,70.52
2022-12-22T12:50:57.856Z,69.96
2022-12-22T12:53:27.657Z,70.16
2022-12-22T12:55:57.528Z,69.77
2022-12-22T12:58:37.645Z,69.50
2022-12-22T13:01:27.034Z,69.29
2022-12-22T13:04:03.051Z,69.91
2022-12-22T13:06:53.240Z,69.35
2022-12-22T13:12:53.448Z,69.23
2022-12-22T13:15:50.208Z,68.59
2022-12-22T13:18:25.797Z,69.26
2022-12-22T13:21:18.656Z,68.84
2022-12-22T13:24:26.368Z,68.16
2022-12-22T13:26:59.512Z,69.47
2022-12-22T13:29:40.365Z,68.17
2022-12-22T13:32:23.609Z,68.68
2022-12-22T13:35:30.234Z,68.80
2022-12-22T13:37:53.864Z,68.92
2022-12-22T13:40:24.857Z,68.79
2022-12-22T13:43:19.491Z,68.52
2022-12-22T13:45:51.015Z,68.82
2022-12-22T13:48:25.662Z,69.04
2022-12-22T13:51:00.575Z,69.01
2022-12-22T13:54:07.014Z,69.09
2022-12-22T13:56:36.789Z,69.01
2022-12-22T13:59:18.576Z,68.80
2022-12-22T14:02:01.176Z,68.46
2022-12-22T14:04:29.677Z,68.97
2022-12-22T14:06:56.771Z,68.71
2022-12-22T14:09:27.631Z,68.65
2022-12-22T14:12:12.766Z,68.73
2022-12-22T14:14:44.307Z,69.09
2022-12-22T14:17:32.567Z,68.93
2022-12-22T14:20:09.178Z,69.63
2022-12-22T14:22:40.089Z,70.13
2022-12-22T14:25:19.107Z,70.02
2022-12-22T14:27:53.039Z,70.17
2022-12-22T14:30:24.432Z,69.85
2022-12-22T14:32:55.889Z,69.50
2022-12-22T14:35:27.600Z,69.67
2022-12-22T14:38:26.181Z,68.33
2022-12-22T14:40:57.557Z,69.54
2022-12-22T14:43:31.066Z,69.52
2022-12-22T14:46:18.981Z,69.58
2022-12-22T14:48:47.403Z,70.42
2022-12-22T14:51:19.980Z,70.10
2022-12-22T14:53:53.597Z,70.17
2022-12-22T14:56:22.214Z,70.58
2022-12-22T14:58:49.870Z,70.45
2022-12-22T15:01:28.452Z,70.32
2022-12-22T15:04:04.526Z,70.36
2022-12-22T15:06:43.644Z,70.36
2022-12-22T15:10:03.716Z,70.31
2022-12-22T15:12:18.279Z,70.40
2022-12-22T15:14:49.746Z,70.65
2022-12-22T15:17:27.738Z,70.54
2022-12-22T15:19:59.287Z,70.65
2022-12-22T15:22:25.890Z,70.87
2022-12-22T15:24:52.414Z,70.64
2022-12-22T15:27:18.979Z,70.25
2022-12-22T15:29:45.481Z,70.17
2022-12-22T15:32:13.629Z,70.79
2022-12-22T15:34:40.434Z,70.47
2022-12-22T15:37:06.997Z,70.76
2022-12-22T15:39:33.448Z,70.49
2022-12-22T15:41:59.972Z,70.35
2022-12-22T15:44:26.489Z,70.11
2022-12-22T15:46:57.351Z,70.36
2022-12-22T15:49:27.814Z,70.81
2022-12-22T15:52:00.537Z,70.86
2022-12-22T15:54:29.626Z,71.25
2022-12-22T15:56:56.312Z,71.46
2022-12-22T15:59:27.218Z,71.40
2022-12-22T16:02:01.288Z,71.33
2022-12-22T16:04:29.188Z,71.81
2022-12-22T16:06:56.954Z,71.84
2022-12-22T16:09:28.755Z,71.65
2022-12-22T16:11:55.329Z,71.39
2022-12-22T16:14:23.126Z,71.56
2022-12-22T16:16:49.916Z,71.38
2022-12-22T16:19:18.616Z,71.29
2022-12-22T16:21:49.961Z,70.93
2022-12-22T16:24:28.499Z,71.09
2022-12-22T16:26:58.657Z,71.47
2022-12-22T16:29:26.572Z,71.17
2022-12-22T16:31:55.051Z,71.12
2022-12-22T16:34:21.690Z,71.00
2022-12-22T16:36:48.230Z,71.25
2022-12-22T16:39:14.818Z,71.37
2022-12-22T16:41:44.119Z,71.80
2022-12-22T16:47:02.784Z,71.90
2022-12-22T16:49:29.257Z,71.63
2022-12-22T16:51:56.091Z,72.06
2022-12-22T16:54:22.568Z,72.30
2022-12-22T16:56:51.383Z,72.19
2022-12-22T16:59:18.408Z,72.02
2022-12-22T17:01:55.806Z,71.86
2022-12-22T17:04:28.280Z,72.26
2022-12-22T17:06:58.284Z,72.23
2022-12-22T17:09:44.046Z,72.01
2022-12-22T17:12:19.231Z,71.98
2022-12-22T17:14:46.837Z,72.27
2022-12-22T17:17:19.129Z,72.01
2022-12-22T17:19:45.757Z,72.15
2022-12-22T17:22:40.300Z,72.38
2022-12-22T17:25:08.490Z,72.58
2022-12-22T17:27:35.247Z,72.82
2022-12-22T17:30:04.032Z,72.80
2022-12-22T17:32:30.635Z,72.86
2022-12-22T17:34:57.710Z,72.35
2022-12-22T17:37:24.383Z,73.13
2022-12-22T17:39:58.903Z,72.83
2022-12-22T17:42:25.463Z,72.96
2022-12-22T17:44:52.682Z,73.64
2022-12-22T17:47:26.899Z,73.32
2022-12-22T17:49:58.487Z,73.19
2022-12-22T17:52:26.967Z,72.87
2022-12-22T17:54:54.174Z,73.28
2022-12-22T17:57:27.424Z,72.96
2022-12-22T17:59:53.902Z,73.34
2022-12-22T18:02:23.985Z,73.23
2022-12-22T18:04:50.920Z,73.53
2022-12-22T18:07:22.772Z,73.57
2022-12-22T18:09:55.565Z,73.78
2022-12-22T18:12:24.696Z,73.27
2022-12-22T18:14:52.100Z,73.56
2022-12-22T18:17:28.625Z,73.86
2022-12-22T18:19:59.798Z,74.07
2022-12-22T18:22:29.441Z,73.59
2022-12-22T18:24:57.034Z,73.96
2022-12-22T18:27:24.076Z,74.30
2022-12-22T18:29:50.593Z,74.35
2022-12-22T18:32:26.262Z,73.73
2022-12-22T18:34:54.105Z,74.41
2022-12-22T18:37:20.721Z,73.96
2022-12-22T18:39:47.249Z,74.21
2022-12-22T18:42:23.998Z,74.22
2022-12-22T18:44:51.368Z,74.39
2022-12-22T18:47:18.237Z,74.38
2022-12-22T18:49:45.604Z,74.47
2022-12-22T18:52:23.038Z,73.91
2022-12-22T18:54:49.758Z,74.47
2022-12-22T18:57:19.624Z,74.44
2022-12-22T18:59:48.048Z,73.83
2022-12-22T19:02:26.971Z,73.78
2022-12-22T19:04:55.197Z,73.54
2022-12-22T19:07:25.229Z,73.34
2022-12-22T19:09:52.096Z,73.43
2022-12-22T19:12:25.166Z,73.18
2022-12-22T19:14:57.697Z,73.56
2022-12-22T19:17:28.532Z,73.77
2022-12-22T19:19:56.433Z,73.66
2022-12-22T19:22:22.941Z,73.84
2022-12-22T19:24:50.199Z,73.85
2022-12-22T19:27:24.469Z,73.46
2022-12-22T19:30:02.967Z,73.44
2022-12-22T19:32:41.176Z,73.25
2022-12-22T19:35:18.483Z,73.57
2022-12-22T19:37:47.180Z,73.64
2022-12-22T19:40:19.372Z,73.78
2022-12-22T19:42:49.992Z,73.91
2022-12-22T19:45:27.051Z,74.16
2022-12-22T19:47:56.011Z,73.90
2022-12-22T19:50:26.341Z,74.11
2022-12-22T19:52:57.107Z,74.01
2022-12-22T19:55:28.825Z,74.30
2022-12-22T19:57:55.970Z,74.37
2022-12-22T20:00:26.635Z,74.38
2022-12-22T20:02:56.285Z,74.48
2022-12-22T20:05:22.719Z,74.24
2022-12-22T20:07:54.300Z,74.23
2022-12-22T20:10:23.079Z,74.46
2022-12-22T20:12:54.969Z,74.12
2022-12-22T20:15:28.644Z,74.17
2022-12-22T20:17:57.470Z,74.56
2022-12-22T20:20:35.734Z,74.14
2022-12-22T20:23:11.988Z,74.46
2022-12-22T20:25:43.787Z,74.54
2022-12-22T20:28:24.384Z,74.75
2022-12-22T20:30:52.245Z,74.48
2022-12-22T20:33:22.298Z,74.36
2022-12-22T20:35:51.666Z,74.22
2022-12-22T20:38:34.379Z,73.87
2022-12-22T20:41:02.873Z,73.82
2022-12-22T20:43:33.134Z,73.75
2022-12-22T20:46:21.133Z,73.79
2022-12-22T20:48:51.066Z,74.26
2022-12-22T20:51:21.035Z,74.27
2022-12-22T20:53:49.012Z,74.03
2022-12-22T20:56:23.211Z,74.22
2022-12-22T20:58:50.760Z,74.23
2022-12-22T21:01:18.836Z,74.63
2022-12-22T21:03:45.843Z,74.52
2022-12-22T21:06:29.237Z,74.62
2022-12-22T21:08:58.747Z,74.39
2022-12-22T21:11:26.405Z,74.30
2022-12-22T21:13:54.843Z,73.96
2022-12-22T21:16:26.656Z,73.59
2022-12-22T21:18:54.873Z,74.10
2022-12-22T21:21:22.036Z,74.50
2022-12-22T21:23:48.827Z,74.12
2022-12-22T21:26:31.819Z,73.96
2022-12-22T21:29:02.518Z,74.38
2022-12-22T21:31:29.221Z,74.06
2022-12-22T21:33:55.794Z,74.69
2022-12-22T21:36:33.893Z,73.98
2022-12-22T21:39:21.065Z,73.92
2022-12-22T21:42:04.664Z,75.72
2022-12-22T21:44:34.816Z,74.65
2022-12-22T21:47:02.392Z,74.80
2022-12-22T21:49:32.136Z,74.63
2022-12-22T21:51:59.140Z,74.70
2022-12-22T21:54:26.580Z,74.99
2022-12-22T21:56:54.963Z,75.08
2022-12-22T21:59:22.741Z,74.64
2022-12-22T22:01:52.466Z,74.84
2022-12-22T22:04:20.457Z,74.78
2022-12-22T22:06:46.953Z,75.84
2022-12-22T22:09:13.664Z,75.39
2022-12-22T22:11:58.998Z,74.85
2022-12-22T22:14:26.868Z,75.52
2022-12-22T22:16:53.509Z,75.14
2022-12-22T22:19:20.082Z,74.64
2022-12-22T22:21:47.101Z,74.60
2022-12-22T22:24:13.732Z,74.74
2022-12-22T22:26:40.379Z,74.59
2022-12-22T22:29:07.291Z,74.58
2022-12-22T22:31:33.870Z,74.81
2022-12-22T22:34:00.428Z,74.94
2022-12-22T22:36:26.941Z,74.85
2022-12-22T22:38:53.520Z,74.90
2022-12-22T22:41:19.959Z,74.71
2022-12-22T22:43:46.545Z,74.45
2022-12-22T22:46:13.121Z,74.16
2022-12-22T22:48:39.661Z,74.41
2022-12-22T22:51:10.354Z,74.38
2022-12-22T22:53:36.861Z,74.59
2022-12-22T22:56:04.169Z,74.33
2022-12-22T22:58:30.684Z,74.46
2022-12-22T23:01:06.121Z,73.90
2022-12-22T23:03:32.733Z,74.50
2022-12-22T23:06:07.960Z,74.33
2022-12-22T23:08:35.883Z,74.95
2022-12-22T23:11:04.150Z,74.88
2022-12-22T23:13:31.279Z,74.61
2022-12-22T23:16:03.034Z,74.40
2022-12-22T23:18:31.510Z,74.73
2022-12-22T23:21:04.615Z,74.65
2022-12-22T23:23:33.421Z,74.78
2022-12-22T23:26:00.204Z,74.83
2022-12-22T23:28:26.695Z,74.31
2022-12-22T23:30:53.949Z,74.45
2022-12-22T23:33:21.381Z,74.26
2022-12-22T23:35:50.118Z,74.00
2022-12-22T23:38:23.112Z,73.76
2022-12-22T23:40:52.983Z,73.71
2022-12-22T23:43:20.759Z,74.19
2022-12-22T23:45:47.217Z,73.89
2022-12-22T23:48:13.737Z,73.74
2022-12-22T23:50:40.229Z,74.03
2022-12-22T23:53:06.755Z,73.89
2022-12-22T23:55:33.246Z,74.16
2022-12-22T23:57:59.736Z,74.07
